createdAt,value
2019-04-03T00:00:47.009Z,10.49
2019-04-03T00:01:47.003Z,10.49
2019-04-03T00:02:47.053Z,10.41
2019-04-03T00:03:46.984Z,10.51
2019-04-03T00:04:47.002Z,10.48
2019-04-03T00:05:46.992Z,10.46
2019-04-03T00:06:46.986Z,10.51
2019-04-03T00:07:47.102Z,10.59
2019-04-03T00:08:47.032Z,10.53
2019-04-03T00:09:46.966Z,10.56
2019-04-03T00:10:47.222Z,10.59
2019-04-03T00:11:46.981Z,10.69
2019-04-03T00:12:47.135Z,10.60
2019-04-03T00:13:46.972Z,10.67
2019-04-03T00:14:47.041Z,10.68
2019-04-03T00:15:47.116Z,10.72
2019-04-03T00:16:46.978Z,10.71
2019-04-03T00:17:46.968Z,10.69
2019-04-03T00:18:47.963Z,10.54
2019-04-03T00:19:47.704Z,10.69
2019-04-03T00:20:48.669Z,10.74
2019-04-03T00:21:47.008Z,10.69
2019-04-03T00:22:46.856Z,10.76
2019-04-03T00:23:46.746Z,10.71
2019-04-03T00:24:46.833Z,10.78
2019-04-03T00:25:46.722Z,10.72
2019-04-03T00:26:46.709Z,10.78
2019-04-03T00:27:46.943Z,10.79
2019-04-03T00:28:46.701Z,10.69
2019-04-03T00:29:46.697Z,10.76
2019-04-03T00:30:46.711Z,10.84
2019-04-03T00:31:46.649Z,10.72
2019-04-03T00:32:46.644Z,10.74
2019-04-03T00:33:46.689Z,10.67
2019-04-03T00:34:46.618Z,10.76
2019-04-03T00:35:46.716Z,10.72
2019-04-03T00:36:46.601Z,10.78
2019-04-03T00:37:46.593Z,10.68
2019-04-03T00:38:46.640Z,10.69
2019-04-03T00:39:46.566Z,10.74
2019-04-03T00:40:46.599Z,10.72
2019-04-03T00:41:46.548Z,10.69
2019-04-03T00:42:46.529Z,10.74
2019-04-03T00:43:46.532Z,10.64
2019-04-03T00:44:46.545Z,10.71
2019-04-03T00:45:46.496Z,10.56
2019-04-03T00:46:46.547Z,10.64
2019-04-03T00:47:46.485Z,10.63
2019-04-03T00:48:46.459Z,10.56
2019-04-03T00:49:46.455Z,10.44
2019-04-03T00:50:46.533Z,10.56
2019-04-03T00:51:46.427Z,10.49
2019-04-03T00:52:46.520Z,10.48
2019-04-03T00:53:46.411Z,10.44
2019-04-03T00:54:46.480Z,10.40
2019-04-03T00:55:46.392Z,10.33
2019-04-03T00:56:46.374Z,10.37
2019-04-03T00:57:46.366Z,10.38
2019-04-03T00:58:46.407Z,10.34
2019-04-03T00:59:46.342Z,10.38
2019-04-03T01:00:46.354Z,10.28
2019-04-03T01:01:46.330Z,10.25
2019-04-03T01:02:46.359Z,10.31
2019-04-03T01:03:46.299Z,10.31
2019-04-03T01:04:46.283Z,10.25
2019-04-03T01:05:46.277Z,10.23
2019-04-03T01:06:46.268Z,10.33
2019-04-03T01:07:46.264Z,10.34
2019-04-03T01:08:46.299Z,10.34
2019-04-03T01:09:46.239Z,10.30
2019-04-03T01:10:46.221Z,10.26
2019-04-03T01:11:46.207Z,10.28
2019-04-03T01:12:46.196Z,10.19
2019-04-03T01:13:46.712Z,10.30
2019-04-03T01:14:46.172Z,10.19
2019-04-03T01:15:46.178Z,10.26
2019-04-03T01:16:46.186Z,10.20
2019-04-03T01:17:46.147Z,10.31
2019-04-03T01:18:46.352Z,10.22
2019-04-03T01:19:46.130Z,10.25
2019-04-03T01:20:46.107Z,10.20
2019-04-03T01:21:46.099Z,10.28
2019-04-03T01:22:46.088Z,10.26
2019-04-03T01:23:46.132Z,10.13
2019-04-03T01:24:46.155Z,10.13
2019-04-03T01:25:46.048Z,10.15
2019-04-03T01:26:46.110Z,10.10
2019-04-03T01:27:46.048Z,10.16
2019-04-03T01:28:46.108Z,10.15
2019-04-03T01:29:46.016Z,10.15
2019-04-03T01:30:45.991Z,10.19
2019-04-03T01:31:45.986Z,10.20
2019-04-03T01:32:46.812Z,10.16
2019-04-03T01:33:46.799Z,10.09
2019-04-03T01:34:47.708Z,10.19
2019-04-03T01:35:47.456Z,10.16
2019-04-03T01:36:46.579Z,10.15
2019-04-03T01:37:46.012Z,10.17
2019-04-03T01:38:45.923Z,10.17
2019-04-03T01:39:45.899Z,10.15
2019-04-03T01:40:45.887Z,10.19
2019-04-03T01:41:45.879Z,10.17
2019-04-03T01:42:45.932Z,10.09
2019-04-03T01:43:45.907Z,10.17
2019-04-03T01:44:45.841Z,10.05
2019-04-03T01:45:46.019Z,10.07
2019-04-03T01:46:45.818Z,10.05
2019-04-03T01:47:45.810Z,9.99
2019-04-03T01:48:45.872Z,9.92
2019-04-03T01:49:45.797Z,9.95
2019-04-03T01:50:45.903Z,9.92
2019-04-03T01:51:45.762Z,9.87
2019-04-03T01:52:45.751Z,9.92
2019-04-03T01:53:45.752Z,9.89
2019-04-03T01:54:45.840Z,9.91
2019-04-03T01:55:45.818Z,9.94
2019-04-03T01:56:45.852Z,9.86
2019-04-03T01:57:45.696Z,9.76
2019-04-03T01:58:45.684Z,9.77
2019-04-03T01:59:45.884Z,9.74
2019-04-03T02:00:45.709Z,9.76
2019-04-03T02:01:45.706Z,9.74
2019-04-03T02:02:45.667Z,9.83
2019-04-03T02:03:45.784Z,9.77
2019-04-03T02:04:45.613Z,9.76
2019-04-03T02:05:45.827Z,9.80
2019-04-03T02:06:45.642Z,9.82
2019-04-03T02:07:45.594Z,9.76
2019-04-03T02:08:45.599Z,9.80
2019-04-03T02:09:46.554Z,9.79
2019-04-03T02:10:48.219Z,9.68
2019-04-03T02:11:45.633Z,9.65
2019-04-03T02:12:45.573Z,9.72
2019-04-03T02:13:45.570Z,9.74
2019-04-03T02:14:45.503Z,9.68
2019-04-03T02:15:52.934Z,9.64
2019-04-03T02:16:45.492Z,9.65
2019-04-03T02:17:45.518Z,9.62
2019-04-03T02:18:45.514Z,9.68
2019-04-03T02:19:45.451Z,9.61
2019-04-03T02:20:45.491Z,9.66
2019-04-03T02:21:45.422Z,9.79
2019-04-03T02:22:45.519Z,9.76
2019-04-03T02:23:45.410Z,9.61
2019-04-03T02:24:45.493Z,9.79
2019-04-03T02:25:45.576Z,9.69
2019-04-03T02:26:45.373Z,9.69
2019-04-03T02:27:45.363Z,9.68
2019-04-03T02:28:45.358Z,9.68
2019-04-03T02:29:45.356Z,9.66
2019-04-03T02:30:46.893Z,9.59
2019-04-03T02:31:45.374Z,9.61
2019-04-03T02:32:45.312Z,9.68
2019-04-03T02:33:45.296Z,9.64
2019-04-03T02:34:45.318Z,9.58
2019-04-03T02:35:45.439Z,9.62
2019-04-03T02:36:45.684Z,9.59
2019-04-03T02:37:48.733Z,9.64
2019-04-03T02:38:45.516Z,9.62
2019-04-03T02:39:45.259Z,9.56
2019-04-03T02:40:45.236Z,9.55
2019-04-03T02:41:45.238Z,9.56
2019-04-03T02:42:45.262Z,9.55
2019-04-03T02:43:46.537Z,9.59
2019-04-03T02:44:45.178Z,9.54
2019-04-03T02:45:45.182Z,9.54
2019-04-03T02:46:45.641Z,9.54
2019-04-03T02:47:45.446Z,9.55
2019-04-03T02:48:45.195Z,9.56
2019-04-03T02:49:45.169Z,9.51
2019-04-03T02:50:47.570Z,9.44
2019-04-03T02:51:45.148Z,9.39
2019-04-03T02:52:45.091Z,9.37
2019-04-03T02:53:45.420Z,9.29
2019-04-03T02:54:45.066Z,9.29
2019-04-03T02:55:45.317Z,9.28
2019-04-03T02:56:46.035Z,9.34
2019-04-03T02:57:48.668Z,9.32
2019-04-03T02:58:45.045Z,9.28
2019-04-03T02:59:45.235Z,9.29
2019-04-03T03:00:45.010Z,9.31
2019-04-03T03:01:45.055Z,9.26
2019-04-03T03:02:45.819Z,9.29
2019-04-03T03:03:48.494Z,9.31
2019-04-03T03:04:44.955Z,9.28
2019-04-03T03:05:45.085Z,9.23
2019-04-03T03:06:44.944Z,9.32
2019-04-03T03:07:45.215Z,9.29
2019-04-03T03:08:45.397Z,9.23
2019-04-03T03:09:46.912Z,9.29
2019-04-03T03:10:44.901Z,9.22
2019-04-03T03:11:45.220Z,9.31
2019-04-03T03:12:44.867Z,9.19
2019-04-03T03:13:44.928Z,9.19
2019-04-03T03:14:44.857Z,9.29
2019-04-03T03:15:45.465Z,9.26
2019-04-03T03:16:44.931Z,9.22
2019-04-03T03:17:45.252Z,9.23
2019-04-03T03:18:44.818Z,9.22
2019-04-03T03:19:44.889Z,9.21
2019-04-03T03:20:45.072Z,9.19
2019-04-03T03:21:45.594Z,9.14
2019-04-03T03:22:44.760Z,9.23
2019-04-03T03:23:44.745Z,9.23
2019-04-03T03:24:45.066Z,9.22
2019-04-03T03:25:44.759Z,9.26
2019-04-03T03:26:44.773Z,9.21
2019-04-03T03:27:44.705Z,9.21
2019-04-03T03:28:46.917Z,9.22
2019-04-03T03:29:44.678Z,9.16
2019-04-03T03:30:54.922Z,9.21
2019-04-03T03:32:05.064Z,9.21
2019-04-03T03:32:46.072Z,9.04
2019-04-03T03:33:45.260Z,9.06
2019-04-03T03:34:52.878Z,9.10
2019-04-03T03:35:48.532Z,9.14
2019-04-03T03:36:44.832Z,9.14
2019-04-03T03:37:44.606Z,9.10
2019-04-03T03:38:44.794Z,9.18
2019-04-03T03:39:44.713Z,9.13
2019-04-03T03:40:47.302Z,9.13
2019-04-03T03:41:45.015Z,9.10
2019-04-03T03:42:44.847Z,8.99
2019-04-03T03:43:44.523Z,9.16
2019-04-03T03:44:46.138Z,9.11
2019-04-03T03:45:44.747Z,8.99
2019-04-03T03:46:44.503Z,9.03
2019-04-03T03:47:44.569Z,9.02
2019-04-03T03:48:45.482Z,9.02
2019-04-03T03:49:44.662Z,9.04
2019-04-03T03:50:44.552Z,8.99
2019-04-03T03:51:44.692Z,8.95
2019-04-03T03:52:44.430Z,9.03
2019-04-03T03:53:45.975Z,9.06
2019-04-03T03:54:44.406Z,9.04
2019-04-03T03:55:44.389Z,9.02
2019-04-03T03:56:44.762Z,9.00
2019-04-03T03:57:44.385Z,9.02
2019-04-03T03:58:45.700Z,9.00
2019-04-03T03:59:44.346Z,8.97
2019-04-03T04:00:44.339Z,8.95
2019-04-03T04:01:44.318Z,8.99
2019-04-03T04:02:45.190Z,8.94
2019-04-03T04:03:44.589Z,8.95
2019-04-03T04:04:46.661Z,8.94
2019-04-03T04:05:44.279Z,8.84
2019-04-03T04:06:44.308Z,8.89
2019-04-03T04:07:44.445Z,8.84
2019-04-03T04:08:45.370Z,8.82
2019-04-03T04:09:44.293Z,8.84
2019-04-03T04:10:44.511Z,8.82
2019-04-03T04:11:44.280Z,8.85
2019-04-03T04:12:44.206Z,8.84
2019-04-03T04:13:47.645Z,8.82
2019-04-03T04:14:44.241Z,8.81
2019-04-03T04:15:44.193Z,8.84
2019-04-03T04:16:46.956Z,8.81
2019-04-03T04:17:44.157Z,8.84
2019-04-03T04:18:44.245Z,8.84
2019-04-03T04:19:44.224Z,8.84
2019-04-03T04:20:44.138Z,8.84
2019-04-03T04:21:45.150Z,8.79
2019-04-03T04:22:44.094Z,8.78
2019-04-03T04:23:44.400Z,8.79
2019-04-03T04:24:44.075Z,8.74
2019-04-03T04:25:44.644Z,8.79
2019-04-03T04:26:44.275Z,8.79
2019-04-03T04:27:44.037Z,8.78
2019-04-03T04:28:44.138Z,8.69
2019-04-03T04:29:44.013Z,8.76
2019-04-03T04:30:44.001Z,8.79
2019-04-03T04:31:44.478Z,8.70
2019-04-03T04:32:45.689Z,8.73
2019-04-03T04:33:44.023Z,8.84
2019-04-03T04:34:44.082Z,8.84
2019-04-03T04:35:44.143Z,8.84
2019-04-03T04:36:43.938Z,8.92
2019-04-03T04:37:43.931Z,8.88
2019-04-03T04:38:44.103Z,8.88
2019-04-03T04:39:43.908Z,8.95
2019-04-03T04:40:43.896Z,8.88
2019-04-03T04:41:43.883Z,8.91
2019-04-03T04:42:43.872Z,8.85
2019-04-03T04:43:43.871Z,8.82
2019-04-03T04:44:43.897Z,8.94
2019-04-03T04:45:44.017Z,8.92
2019-04-03T04:46:44.691Z,8.92
2019-04-03T04:47:45.852Z,8.88
2019-04-03T04:48:43.818Z,8.89
2019-04-03T04:49:43.836Z,8.94
2019-04-03T04:50:44.059Z,8.94
2019-04-03T04:51:44.081Z,8.74
2019-04-03T04:52:43.762Z,8.92
2019-04-03T04:53:43.811Z,8.81
2019-04-03T04:54:44.038Z,8.92
2019-04-03T04:55:43.731Z,8.95
2019-04-03T04:56:43.787Z,8.88
2019-04-03T04:57:43.704Z,8.87
2019-04-03T04:58:43.976Z,8.95
2019-04-03T04:59:45.228Z,9.04
2019-04-03T05:00:45.054Z,9.02
2019-04-03T05:01:43.724Z,8.94
2019-04-03T05:02:43.656Z,8.97
2019-04-03T05:03:43.646Z,9.06
2019-04-03T05:04:43.627Z,8.91
2019-04-03T05:05:43.644Z,9.00
2019-04-03T05:06:43.613Z,9.04
2019-04-03T05:07:43.683Z,9.00
2019-04-03T05:08:43.581Z,9.02
2019-04-03T05:09:43.579Z,9.16
2019-04-03T05:10:43.566Z,8.99
2019-04-03T05:11:43.686Z,9.02
2019-04-03T05:12:45.542Z,9.00
2019-04-03T05:13:46.295Z,9.03
2019-04-03T05:14:43.568Z,9.10
2019-04-03T05:15:43.509Z,9.08
2019-04-03T05:16:43.490Z,9.00
2019-04-03T05:17:43.489Z,9.02
2019-04-03T05:18:43.526Z,9.11
2019-04-03T05:19:43.932Z,9.14
2019-04-03T05:20:43.560Z,9.18
2019-04-03T05:21:43.549Z,9.10
2019-04-03T05:22:43.594Z,9.18
2019-04-03T05:23:43.421Z,9.22
2019-04-03T05:24:43.480Z,9.13
2019-04-03T05:25:43.574Z,9.19
2019-04-03T05:26:43.385Z,9.22
2019-04-03T05:27:43.382Z,9.22
2019-04-03T05:28:54.319Z,9.29
2019-04-03T05:29:44.347Z,9.25
2019-04-03T05:30:43.345Z,9.29
2019-04-03T05:31:43.387Z,9.26
2019-04-03T05:32:43.328Z,9.39
2019-04-03T05:33:43.368Z,9.32
2019-04-03T05:34:44.080Z,9.37
2019-04-03T05:35:45.317Z,9.39
2019-04-03T05:36:43.279Z,9.37
2019-04-03T05:37:43.617Z,9.47
2019-04-03T05:38:43.273Z,9.46
2019-04-03T05:39:43.244Z,9.54
2019-04-03T05:40:43.489Z,9.51
2019-04-03T05:41:43.417Z,9.58
2019-04-03T05:42:43.289Z,9.56
2019-04-03T05:43:43.511Z,9.61
2019-04-03T05:44:43.200Z,9.64
2019-04-03T05:45:43.176Z,9.50
2019-04-03T05:46:43.185Z,9.44
2019-04-03T05:47:43.148Z,9.47
2019-04-03T05:48:43.148Z,9.56
2019-04-03T05:49:46.320Z,9.55
2019-04-03T05:50:43.141Z,9.61
2019-04-03T05:51:43.116Z,9.59
2019-04-03T05:52:43.099Z,9.72
2019-04-03T05:53:43.168Z,9.69
2019-04-03T05:54:44.475Z,9.72
2019-04-03T05:55:43.131Z,9.69
2019-04-03T05:56:43.418Z,9.73
2019-04-03T05:57:44.909Z,9.77
2019-04-03T05:58:54.593Z,9.76
2019-04-03T05:59:44.612Z,9.84
2019-04-03T06:00:43.076Z,9.92
2019-04-03T06:01:46.062Z,10.09
2019-04-03T06:02:42.986Z,10.10
2019-04-03T06:03:45.571Z,10.12
2019-04-03T06:04:42.998Z,10.25
2019-04-03T06:05:43.944Z,10.30
2019-04-03T06:06:45.910Z,10.31
2019-04-03T06:07:43.095Z,10.22
2019-04-03T06:08:43.098Z,10.33
2019-04-03T06:09:43.153Z,10.23
2019-04-03T06:10:43.034Z,10.34
2019-04-03T06:11:42.979Z,10.37
2019-04-03T06:12:45.348Z,10.49
2019-04-03T06:13:42.902Z,10.61
2019-04-03T06:14:42.873Z,10.81
2019-04-03T06:15:42.864Z,10.84
2019-04-03T06:16:42.861Z,10.72
2019-04-03T06:17:42.932Z,10.72
2019-04-03T06:18:42.840Z,10.81
2019-04-03T06:19:43.049Z,10.84
2019-04-03T06:20:43.935Z,10.94
2019-04-03T06:21:45.619Z,10.97
2019-04-03T06:22:42.778Z,11.18
2019-04-03T06:23:42.976Z,11.40
2019-04-03T06:24:43.122Z,11.62
2019-04-03T06:25:42.734Z,11.75
2019-04-03T06:26:44.580Z,11.81
2019-04-03T06:27:45.469Z,12.15
2019-04-03T06:28:44.904Z,12.40
2019-04-03T06:29:42.751Z,12.55
2019-04-03T06:30:42.747Z,12.55
2019-04-03T06:31:42.682Z,12.65
2019-04-03T06:32:42.732Z,12.75
2019-04-03T06:33:42.642Z,12.98
2019-04-03T06:34:43.731Z,13.42
2019-04-03T06:35:44.544Z,13.63
2019-04-03T06:36:42.632Z,14.05
2019-04-03T06:37:42.732Z,14.44
2019-04-03T06:38:42.585Z,14.48
2019-04-03T06:39:42.576Z,14.20
2019-04-03T06:40:42.820Z,14.00
2019-04-03T06:41:42.827Z,13.86
2019-04-03T06:42:44.956Z,13.25
2019-04-03T06:43:42.608Z,12.82
2019-04-03T06:44:42.712Z,12.50
2019-04-03T06:45:43.893Z,12.76
2019-04-03T06:46:42.524Z,13.28
2019-04-03T06:47:42.493Z,13.79
2019-04-03T06:48:42.731Z,14.26
2019-04-03T06:49:42.472Z,14.30
2019-04-03T06:50:42.583Z,14.43
2019-04-03T06:51:42.449Z,14.53
2019-04-03T06:52:42.438Z,14.85
2019-04-03T06:53:42.467Z,15.37
2019-04-03T06:54:44.522Z,15.61
2019-04-03T06:55:42.491Z,16.04
2019-04-03T06:56:42.394Z,16.13
2019-04-03T06:57:42.446Z,16.23
2019-04-03T06:58:44.416Z,16.68
2019-04-03T06:59:42.359Z,16.90
2019-04-03T07:00:42.584Z,16.31
2019-04-03T07:01:42.341Z,16.26
2019-04-03T07:02:42.418Z,16.79
2019-04-03T07:03:42.362Z,17.27
2019-04-03T07:04:42.340Z,17.82
2019-04-03T07:05:42.327Z,18.11
2019-04-03T07:06:44.310Z,18.25
2019-04-03T07:07:42.313Z,18.28
2019-04-03T07:08:42.320Z,17.89
2019-04-03T07:09:42.375Z,17.24
2019-04-03T07:10:54.238Z,16.99
2019-04-03T07:11:44.029Z,16.41
2019-04-03T07:12:42.360Z,16.35
2019-04-03T07:13:42.199Z,16.61
2019-04-03T07:14:42.282Z,16.99
2019-04-03T07:15:42.190Z,17.57
2019-04-03T07:16:42.219Z,18.25
2019-04-03T07:17:49.001Z,18.78
2019-04-03T07:18:42.300Z,18.78
2019-04-03T07:19:42.226Z,18.98
2019-04-03T07:20:42.122Z,19.36
2019-04-03T07:21:42.181Z,19.88
2019-04-03T07:22:42.121Z,20.26
2019-04-03T07:23:42.337Z,20.50
2019-04-03T07:24:42.101Z,20.78
2019-04-03T07:25:42.124Z,20.51
2019-04-03T07:26:42.054Z,20.26
2019-04-03T07:27:42.457Z,20.50
2019-04-03T07:28:42.378Z,21.03
2019-04-03T07:29:42.023Z,21.54
2019-04-03T07:30:42.399Z,21.69
2019-04-03T07:31:42.062Z,21.45
2019-04-03T07:32:42.246Z,21.42
2019-04-03T07:33:41.974Z,21.00
2019-04-03T07:34:41.986Z,21.39
2019-04-03T07:35:41.966Z,22.13
2019-04-03T07:36:44.698Z,22.39
2019-04-03T07:37:42.035Z,21.15
2019-04-03T07:38:41.926Z,21.09
2019-04-03T07:39:41.911Z,21.32
2019-04-03T07:40:42.075Z,21.32
2019-04-03T07:41:42.168Z,21.67
2019-04-03T07:42:42.189Z,22.10
2019-04-03T07:43:41.863Z,22.51
2019-04-03T07:44:41.849Z,23.05
2019-04-03T07:45:43.874Z,23.59
2019-04-03T07:46:41.829Z,23.74
2019-04-03T07:47:41.824Z,23.96
2019-04-03T07:48:42.712Z,24.13
2019-04-03T07:49:41.796Z,24.42
2019-04-03T07:50:42.299Z,24.35
2019-04-03T07:51:43.292Z,23.99
2019-04-03T07:52:41.800Z,23.37
2019-04-03T07:53:41.891Z,23.84
2019-04-03T07:54:41.752Z,24.55
2019-04-03T07:55:43.715Z,25.26
2019-04-03T07:56:42.007Z,25.77
2019-04-03T07:57:41.709Z,26.38
2019-04-03T07:58:41.714Z,27.15
2019-04-03T07:59:41.802Z,27.47
2019-04-03T08:00:42.084Z,27.45
2019-04-03T08:01:41.876Z,27.49
2019-04-03T08:02:47.446Z,27.36
2019-04-03T08:03:43.039Z,26.62
2019-04-03T08:04:41.641Z,25.06
2019-04-03T08:05:41.684Z,25.06
2019-04-03T08:06:41.617Z,25.90
2019-04-03T08:07:41.691Z,26.63
2019-04-03T08:08:41.735Z,27.55
2019-04-03T08:09:41.861Z,26.68
2019-04-03T08:10:41.569Z,26.26
2019-04-03T08:11:41.596Z,26.29
2019-04-03T08:12:41.797Z,25.59
2019-04-03T08:13:41.543Z,25.26
2019-04-03T08:14:42.006Z,25.29
2019-04-03T08:15:43.893Z,26.16
2019-04-03T08:16:42.777Z,25.59
2019-04-03T08:17:41.538Z,26.06
2019-04-03T08:18:41.474Z,26.59
2019-04-03T08:19:41.536Z,27.42
2019-04-03T08:20:41.562Z,27.95
2019-04-03T08:21:41.518Z,28.47
2019-04-03T08:22:41.755Z,28.30
2019-04-03T08:23:41.623Z,28.69
2019-04-03T08:24:41.409Z,29.29
2019-04-03T08:25:42.857Z,29.59
2019-04-03T08:26:42.483Z,29.90
2019-04-03T08:27:41.383Z,30.19
2019-04-03T08:28:41.450Z,30.48
2019-04-03T08:29:41.772Z,30.65
2019-04-03T08:30:41.359Z,30.70
2019-04-03T08:31:44.174Z,30.85
2019-04-03T08:32:42.339Z,30.73
2019-04-03T08:33:41.317Z,30.40
2019-04-03T08:34:41.355Z,30.16
2019-04-03T08:35:41.295Z,29.36
2019-04-03T08:36:41.617Z,28.64
2019-04-03T08:37:42.206Z,28.14
2019-04-03T08:38:43.987Z,27.52
2019-04-03T08:39:41.269Z,27.55
2019-04-03T08:40:41.427Z,27.42
2019-04-03T08:41:41.234Z,27.70
2019-04-03T08:42:41.212Z,27.96
2019-04-03T08:43:41.199Z,28.29
2019-04-03T08:44:41.254Z,28.94
2019-04-03T08:45:41.191Z,29.45
2019-04-03T08:46:43.882Z,29.23
2019-04-03T08:47:44.534Z,27.35
2019-04-03T08:48:41.142Z,26.45
2019-04-03T08:49:41.143Z,26.83
2019-04-03T08:50:41.277Z,27.64
2019-04-03T08:51:41.114Z,28.59
2019-04-03T08:52:41.109Z,29.56
2019-04-03T08:53:41.222Z,30.40
2019-04-03T08:54:42.198Z,30.59
2019-04-03T08:55:41.069Z,31.09
2019-04-03T08:56:41.117Z,30.80
2019-04-03T08:57:41.099Z,30.18
2019-04-03T08:58:41.089Z,29.79
2019-04-03T08:59:41.027Z,29.34
2019-04-03T09:00:41.034Z,28.81
2019-04-03T09:01:41.010Z,27.74
2019-04-03T09:02:43.762Z,27.52
2019-04-03T09:03:41.015Z,27.15
2019-04-03T09:04:40.965Z,26.62
2019-04-03T09:05:41.002Z,25.80
2019-04-03T09:06:40.945Z,25.80
2019-04-03T09:07:40.942Z,26.51
2019-04-03T09:08:41.045Z,27.29
2019-04-03T09:09:41.049Z,27.70
2019-04-03T09:10:41.087Z,28.39
2019-04-03T09:11:40.902Z,27.90
2019-04-03T09:12:40.901Z,27.87
2019-04-03T09:13:40.899Z,28.64
2019-04-03T09:14:40.978Z,29.19
2019-04-03T09:15:40.924Z,29.56
2019-04-03T09:16:41.283Z,29.86
2019-04-03T09:17:40.855Z,30.25
2019-04-03T09:18:40.938Z,30.88
2019-04-03T09:19:41.751Z,31.03
2019-04-03T09:20:41.091Z,31.76
2019-04-03T09:21:41.013Z,32.52
2019-04-03T09:22:40.986Z,33.34
2019-04-03T09:23:41.069Z,34.14
2019-04-03T09:24:40.786Z,34.50
2019-04-03T09:25:40.839Z,34.43
2019-04-03T09:26:40.905Z,33.59
2019-04-03T09:27:40.979Z,32.58
2019-04-03T09:28:41.901Z,30.37
2019-04-03T09:29:40.789Z,29.84
2019-04-03T09:30:40.699Z,29.04
2019-04-03T09:31:40.924Z,27.71
2019-04-03T09:32:41.014Z,27.17
2019-04-03T09:33:40.660Z,27.54
2019-04-03T09:34:40.653Z,28.56
2019-04-03T09:35:42.792Z,29.34
2019-04-03T09:36:40.733Z,29.05
2019-04-03T09:37:40.697Z,28.79
2019-04-03T09:38:41.499Z,28.82
2019-04-03T09:39:40.659Z,27.86
2019-04-03T09:40:40.586Z,26.65
2019-04-03T09:41:40.928Z,26.41
2019-04-03T09:42:40.654Z,27.12
2019-04-03T09:43:40.597Z,27.54
2019-04-03T09:44:40.791Z,27.30
2019-04-03T09:45:40.524Z,27.20
2019-04-03T09:46:40.520Z,26.80
2019-04-03T09:47:40.502Z,26.58
2019-04-03T09:48:40.624Z,26.56
2019-04-03T09:49:43.412Z,26.68
2019-04-03T09:50:40.476Z,26.43
2019-04-03T09:51:40.483Z,26.55
2019-04-03T09:52:48.216Z,26.65
2019-04-03T09:53:41.515Z,27.58
2019-04-03T09:54:40.636Z,27.44
2019-04-03T09:55:40.418Z,28.60
2019-04-03T09:56:54.855Z,30.40
2019-04-03T09:57:41.404Z,30.39
2019-04-03T09:58:40.406Z,28.49
2019-04-03T09:59:40.601Z,28.22
2019-04-03T10:00:42.308Z,29.20
2019-04-03T10:01:40.358Z,29.91
2019-04-03T10:02:40.352Z,29.47
2019-04-03T10:03:40.397Z,29.27
2019-04-03T10:04:40.329Z,28.78
2019-04-03T10:05:40.671Z,28.72
2019-04-03T10:06:40.496Z,29.50
2019-04-03T10:07:40.606Z,30.90
2019-04-03T10:08:41.065Z,31.12
2019-04-03T10:09:43.159Z,31.92
2019-04-03T10:10:40.291Z,32.45
2019-04-03T10:11:40.469Z,32.86
2019-04-03T10:12:42.444Z,33.15
2019-04-03T10:13:40.227Z,33.80
2019-04-03T10:14:40.331Z,33.43
2019-04-03T10:15:40.360Z,32.27
2019-04-03T10:16:40.257Z,32.64
2019-04-03T10:17:40.196Z,32.73
2019-04-03T10:18:41.799Z,31.58
2019-04-03T10:19:40.290Z,31.37
2019-04-03T10:20:40.162Z,30.99
2019-04-03T10:21:41.023Z,29.49
2019-04-03T10:22:40.143Z,28.67
2019-04-03T10:23:40.248Z,28.44
2019-04-03T10:24:40.147Z,28.19
2019-04-03T10:25:40.384Z,28.72
2019-04-03T10:26:40.926Z,28.44
2019-04-03T10:27:42.677Z,27.52
2019-04-03T10:28:42.168Z,27.11
2019-04-03T10:29:40.187Z,27.78
2019-04-03T10:30:40.060Z,27.77
2019-04-03T10:31:40.035Z,28.47
2019-04-03T10:32:40.271Z,29.44
2019-04-03T10:33:40.028Z,31.15
2019-04-03T10:34:40.020Z,32.48
2019-04-03T10:35:40.128Z,32.95
2019-04-03T10:36:42.046Z,32.67
2019-04-03T10:37:39.997Z,33.24
2019-04-03T10:38:41.886Z,33.83
2019-04-03T10:39:43.725Z,31.69
2019-04-03T10:40:41.870Z,30.28
2019-04-03T10:41:40.082Z,29.91
2019-04-03T10:42:40.225Z,29.97
2019-04-03T10:43:39.920Z,30.12
2019-04-03T10:44:40.013Z,30.08
2019-04-03T10:45:40.235Z,31.24
2019-04-03T10:46:39.960Z,32.48
2019-04-03T10:47:43.370Z,33.12
2019-04-03T10:48:40.140Z,33.65
2019-04-03T10:49:40.345Z,33.65
2019-04-03T10:50:39.837Z,33.05
2019-04-03T10:51:41.885Z,33.58
2019-04-03T10:52:40.165Z,33.73
2019-04-03T10:53:39.944Z,33.86
2019-04-03T10:54:39.861Z,32.90
2019-04-03T10:55:40.099Z,30.50
2019-04-03T10:56:39.838Z,29.61
2019-04-03T10:57:39.803Z,29.57
2019-04-03T10:58:42.265Z,29.01
2019-04-03T10:59:40.233Z,28.23
2019-04-03T11:00:39.846Z,27.15
2019-04-03T11:01:40.070Z,26.80
2019-04-03T11:02:39.823Z,26.66
2019-04-03T11:03:39.719Z,26.88
2019-04-03T11:04:39.782Z,27.18
2019-04-03T11:05:39.686Z,28.02
2019-04-03T11:06:40.063Z,28.26
2019-04-03T11:07:39.672Z,28.82
2019-04-03T11:08:39.670Z,29.50
2019-04-03T11:09:39.649Z,30.37
2019-04-03T11:10:39.889Z,31.24
2019-04-03T11:11:42.544Z,31.17
2019-04-03T11:12:39.636Z,29.63
2019-04-03T11:13:39.602Z,28.62
2019-04-03T11:14:40.019Z,26.78
2019-04-03T11:15:39.601Z,26.18
2019-04-03T11:16:39.674Z,26.52
2019-04-03T11:17:39.567Z,27.14
2019-04-03T11:19:06.641Z,27.25
2019-04-03T11:19:39.757Z,26.77
2019-04-03T11:20:40.978Z,26.37
2019-04-03T11:21:39.819Z,25.18
2019-04-03T11:22:41.815Z,24.99
2019-04-03T11:23:44.449Z,25.21
2019-04-03T11:24:42.533Z,25.69
2019-04-03T11:25:41.951Z,25.96
2019-04-03T11:26:39.490Z,26.28
2019-04-03T11:27:43.675Z,27.25
2019-04-03T11:28:40.468Z,27.68
2019-04-03T11:29:41.916Z,28.02
2019-04-03T11:30:39.842Z,28.47
2019-04-03T11:31:41.834Z,28.88
2019-04-03T11:32:41.263Z,29.90
2019-04-03T11:33:39.457Z,30.90
2019-04-03T11:34:39.376Z,31.59
2019-04-03T11:35:39.373Z,32.15
2019-04-03T11:36:39.373Z,32.18
2019-04-03T11:37:39.396Z,31.15
2019-04-03T11:38:39.403Z,30.16
2019-04-03T11:39:39.519Z,29.59
2019-04-03T11:40:39.516Z,29.61
2019-04-03T11:41:39.537Z,30.43
2019-04-03T11:42:39.377Z,31.51
2019-04-03T11:43:39.721Z,31.74
2019-04-03T11:44:39.334Z,32.11
2019-04-03T11:45:39.602Z,32.60
2019-04-03T11:46:39.812Z,32.90
2019-04-03T11:47:39.316Z,32.07
2019-04-03T11:48:42.036Z,30.87
2019-04-03T11:49:39.232Z,30.70
2019-04-03T11:50:40.144Z,30.97
2019-04-03T11:51:39.503Z,31.18
2019-04-03T11:52:39.255Z,29.97
2019-04-03T11:53:39.222Z,30.09
2019-04-03T11:54:39.999Z,30.32
2019-04-03T11:55:39.945Z,31.15
2019-04-03T11:56:39.170Z,31.56
2019-04-03T11:57:39.223Z,31.33
2019-04-03T11:58:39.131Z,31.29
2019-04-03T11:59:39.192Z,32.07
2019-04-03T12:00:39.151Z,32.48
2019-04-03T12:01:39.120Z,32.55
2019-04-03T12:02:40.037Z,32.87
2019-04-03T12:03:39.248Z,32.95
2019-04-03T12:04:39.159Z,33.43
2019-04-03T12:05:39.347Z,33.81
2019-04-03T12:06:39.688Z,34.10
2019-04-03T12:07:39.041Z,34.01
2019-04-03T12:08:39.217Z,33.08
2019-04-03T12:09:39.487Z,31.96
2019-04-03T12:10:39.015Z,31.84
2019-04-03T12:11:39.521Z,32.23
2019-04-03T12:12:41.646Z,32.60
2019-04-03T12:13:39.049Z,32.15
2019-04-03T12:14:39.114Z,31.87
2019-04-03T12:15:38.995Z,32.16
2019-04-03T12:16:39.244Z,32.56
2019-04-03T12:17:39.003Z,32.93
2019-04-03T12:18:39.326Z,32.96
2019-04-03T12:19:39.016Z,32.70
2019-04-03T12:20:43.778Z,32.51
2019-04-03T12:21:40.147Z,32.59
2019-04-03T12:22:39.006Z,32.30
2019-04-03T12:23:39.555Z,32.22
2019-04-03T12:24:38.884Z,32.04
2019-04-03T12:25:40.607Z,31.31
2019-04-03T12:26:38.873Z,30.87
2019-04-03T12:27:38.870Z,30.77
2019-04-03T12:28:38.943Z,30.78
2019-04-03T12:29:38.857Z,30.72
2019-04-03T12:30:38.841Z,30.85
2019-04-03T12:31:39.050Z,31.10
2019-04-03T12:32:43.695Z,31.36
2019-04-03T12:33:51.671Z,30.53
2019-04-03T12:34:39.779Z,29.59
2019-04-03T12:35:40.864Z,28.72
2019-04-03T12:36:38.834Z,28.74
2019-04-03T12:37:38.753Z,28.59
2019-04-03T12:38:38.736Z,28.10
2019-04-03T12:39:38.726Z,27.51
2019-04-03T12:40:38.967Z,26.95
2019-04-03T12:41:38.713Z,26.99
2019-04-03T12:42:38.921Z,27.07
2019-04-03T12:43:38.693Z,26.95
2019-04-03T12:44:38.949Z,26.73
2019-04-03T12:45:39.006Z,26.41
2019-04-03T12:46:41.011Z,26.00
2019-04-03T12:47:38.658Z,25.29
2019-04-03T12:48:38.983Z,25.16
2019-04-03T12:49:39.051Z,25.25
2019-04-03T12:50:38.981Z,25.17
2019-04-03T12:51:38.989Z,25.36
2019-04-03T12:52:38.927Z,25.21
2019-04-03T12:53:38.876Z,25.25
2019-04-03T12:54:38.561Z,25.10
2019-04-03T12:55:38.553Z,25.13
2019-04-03T12:56:38.543Z,25.14
2019-04-03T12:57:39.760Z,25.16
2019-04-03T12:58:38.604Z,24.89
2019-04-03T12:59:39.947Z,24.69
2019-04-03T13:00:38.498Z,24.45